sensor_id;sensor_type;location;lat;lon;timestamp;P1;durP1;ratioP1;P2;durP2;ratioP2
10277;SDS011;5184;51.376;7.148;2024-01-15T00:02:23;39.73;;;21.73;;
10277;SDS011;5184;51.376;7.148;2024-01-15T00:04:50;40.37;;;20.90;;
10277;SDS011;5184;51.376;7.148;2024-01-15T00:07:18;46.30;;;21.57;;
10277;SDS011;5184;51.376;7.148;2024-01-15T00:09:44;41.03;;;20.63;;
10277;SDS011;5184;51.376;7.148;2024-01-15T00:12:11;39.10;;;21.23;;
10277;SDS011;5184;51.376;7.148;2024-01-15T00:14:37;36.83;;;20.33;;
10277;SDS011;5184;51.376;7.148;2024-01-15T00:17:05;43.07;;;20.70;;
10277;SDS011;5184;51.376;7.148;2024-01-15T00:19:32;39.57;;;19.90;;
10277;SDS011;5184;51.376;7.148;2024-01-15T00:21:59;39.93;;;22.13;;
10277;SDS011;5184;51.376;7.148;2024-01-15T00:24:25;42.70;;;21.20;;
10277;SDS011;5184;51.376;7.148;2024-01-15T00:26:52;41.37;;;21.33;;
10277;SDS011;5184;51.376;7.148;2024-01-15T00:29:19;39.10;;;20.00;;
10277;SDS011;5184;51.376;7.148;2024-01-15T00:31:47;42.43;;;22.07;;
10277;SDS011;5184;51.376;7.148;2024-01-15T00:34:13;40.73;;;20.17;;
10277;SDS011;5184;51.376;7.148;2024-01-15T00:36:40;39.10;;;20.43;;
10277;SDS011;5184;51.376;7.148;2024-01-15T00:39:06;40.60;;;21.13;;
10277;SDS011;5184;51.376;7.148;2024-01-15T00:41:34;37.07;;;20.83;;
10277;SDS011;5184;51.376;7.148;2024-01-15T00:44:01;41.90;;;20.60;;
10277;SDS011;5184;51.376;7.148;2024-01-15T00:46:28;40.20;;;21.07;;
10277;SDS011;5184;51.376;7.148;2024-01-15T00:48:54;39.50;;;20.23;;
10277;SDS011;5184;51.376;7.148;2024-01-15T00:51:21;39.73;;;20.83;;
10277;SDS011;5184;51.376;7.148;2024-01-15T00:53:48;46.27;;;22.83;;
10277;SDS011;5184;51.376;7.148;2024-01-15T00:56:16;45.47;;;21.33;;
10277;SDS011;5184;51.376;7.148;2024-01-15T00:58:42;42.23;;;22.10;;
10277;SDS011;5184;51.376;7.148;2024-01-15T01:01:09;40.03;;;19.73;;
10277;SDS011;5184;51.376;7.148;2024-01-15T01:03:36;43.07;;;20.23;;
10277;SDS011;5184;51.376;7.148;2024-01-15T01:06:02;39.97;;;20.13;;
10277;SDS011;5184;51.376;7.148;2024-01-15T01:08:29;36.27;;;19.90;;
10277;SDS011;5184;51.376;7.148;2024-01-15T01:10:56;40.10;;;20.00;;
10277;SDS011;5184;51.376;7.148;2024-01-15T01:13:23;43.63;;;22.00;;
10277;SDS011;5184;51.376;7.148;2024-01-15T01:15:49;43.43;;;20.90;;
10277;SDS011;5184;51.376;7.148;2024-01-15T01:18:16;42.23;;;19.93;;
10277;SDS011;5184;51.376;7.148;2024-01-15T01:20:43;42.00;;;22.07;;
10277;SDS011;5184;51.376;7.148;2024-01-15T01:23:11;41.70;;;21.70;;
10277;SDS011;5184;51.376;7.148;2024-01-15T01:25:37;41.53;;;22.07;;
10277;SDS011;5184;51.376;7.148;2024-01-15T01:28:04;41.07;;;20.63;;
10277;SDS011;5184;51.376;7.148;2024-01-15T01:30:31;48.33;;;24.10;;
10277;SDS011;5184;51.376;7.148;2024-01-15T01:32:57;39.73;;;21.90;;
10277;SDS011;5184;51.376;7.148;2024-01-15T01:35:24;41.40;;;21.73;;
10277;SDS011;5184;51.376;7.148;2024-01-15T01:37:50;38.03;;;21.60;;
10277;SDS011;5184;51.376;7.148;2024-01-15T01:40:18;43.83;;;21.07;;
10277;SDS011;5184;51.376;7.148;2024-01-15T01:42:44;43.87;;;20.50;;
10277;SDS011;5184;51.376;7.148;2024-01-15T01:45:11;38.73;;;19.50;;
10277;SDS011;5184;51.376;7.148;2024-01-15T01:47:37;39.77;;;20.57;;
10277;SDS011;5184;51.376;7.148;2024-01-15T01:50:05;44.13;;;21.57;;
10277;SDS011;5184;51.376;7.148;2024-01-15T01:52:31;40.80;;;21.20;;
10277;SDS011;5184;51.376;7.148;2024-01-15T01:54:58;38.07;;;20.60;;
10277;SDS011;5184;51.376;7.148;2024-01-15T01:57:25;38.97;;;20.43;;
10277;SDS011;5184;51.376;7.148;2024-01-15T01:59:53;35.53;;;21.53;;
10277;SDS011;5184;51.376;7.148;2024-01-15T02:02:19;39.50;;;20.17;;
10277;SDS011;5184;51.376;7.148;2024-01-15T02:04:46;36.60;;;19.73;;
10277;SDS011;5184;51.376;7.148;2024-01-15T02:07:13;39.63;;;19.87;;
10277;SDS011;5184;51.376;7.148;2024-01-15T02:09:41;39.10;;;20.27;;
10277;SDS011;5184;51.376;7.148;2024-01-15T02:12:07;36.87;;;19.10;;
10277;SDS011;5184;51.376;7.148;2024-01-15T02:14:34;38.63;;;19.07;;
10277;SDS011;5184;51.376;7.148;2024-01-15T02:17:01;40.60;;;20.37;;
10277;SDS011;5184;51.376;7.148;2024-01-15T02:19:27;38.53;;;19.67;;
10277;SDS011;5184;51.376;7.148;2024-01-15T02:21:55;37.57;;;19.23;;
10277;SDS011;5184;51.376;7.148;2024-01-15T02:24:22;38.93;;;20.40;;
10277;SDS011;5184;51.376;7.148;2024-01-15T02:26:49;37.83;;;19.43;;
10277;SDS011;5184;51.376;7.148;2024-01-15T02:29:15;40.73;;;20.63;;
10277;SDS011;5184;51.376;7.148;2024-01-15T02:31:42;42.43;;;20.83;;
10277;SDS011;5184;51.376;7.148;2024-01-15T02:34:09;41.13;;;21.30;;
10277;SDS011;5184;51.376;7.148;2024-01-15T02:36:36;42.17;;;21.07;;
10277;SDS011;5184;51.376;7.148;2024-01-15T02:39:04;35.77;;;18.60;;
10277;SDS011;5184;51.376;7.148;2024-01-15T02:41:30;36.63;;;19.17;;
10277;SDS011;5184;51.376;7.148;2024-01-15T02:43:57;39.80;;;20.33;;
10277;SDS011;5184;51.376;7.148;2024-01-15T02:46:24;40.67;;;19.37;;
10277;SDS011;5184;51.376;7.148;2024-01-15T02:48:51;35.83;;;18.90;;
10277;SDS011;5184;51.376;7.148;2024-01-15T02:51:18;36.53;;;19.23;;
10277;SDS011;5184;51.376;7.148;2024-01-15T02:53:46;39.60;;;19.13;;
10277;SDS011;5184;51.376;7.148;2024-01-15T02:56:12;41.00;;;18.73;;
10277;SDS011;5184;51.376;7.148;2024-01-15T02:58:39;36.27;;;18.90;;
10277;SDS011;5184;51.376;7.148;2024-01-15T03:01:05;45.00;;;20.40;;
10277;SDS011;5184;51.376;7.148;2024-01-15T03:03:33;35.13;;;16.70;;
10277;SDS011;5184;51.376;7.148;2024-01-15T03:06:00;33.93;;;16.27;;
10277;SDS011;5184;51.376;7.148;2024-01-15T03:08:26;36.50;;;17.73;;
10277;SDS011;5184;51.376;7.148;2024-01-15T03:10:53;37.70;;;18.77;;
10277;SDS011;5184;51.376;7.148;2024-01-15T03:13:20;32.73;;;18.13;;
10277;SDS011;5184;51.376;7.148;2024-01-15T03:15:47;39.00;;;18.33;;
10277;SDS011;5184;51.376;7.148;2024-01-15T03:18:15;34.57;;;17.97;;
10277;SDS011;5184;51.376;7.148;2024-01-15T03:20:41;33.43;;;16.63;;
10277;SDS011;5184;51.376;7.148;2024-01-15T03:23:08;30.63;;;16.03;;
10277;SDS011;5184;51.376;7.148;2024-01-15T03:25:34;31.13;;;16.27;;
10277;SDS011;5184;51.376;7.148;2024-01-15T03:28:02;29.47;;;15.23;;
10277;SDS011;5184;51.376;7.148;2024-01-15T03:30:28;30.13;;;16.13;;
10277;SDS011;5184;51.376;7.148;2024-01-15T03:32:55;28.97;;;14.97;;
10277;SDS011;5184;51.376;7.148;2024-01-15T03:35:22;28.87;;;15.53;;
10277;SDS011;5184;51.376;7.148;2024-01-15T03:37:50;27.70;;;15.07;;
10277;SDS011;5184;51.376;7.148;2024-01-15T03:40:16;28.87;;;14.17;;
10277;SDS011;5184;51.376;7.148;2024-01-15T03:42:43;28.70;;;15.27;;
10277;SDS011;5184;51.376;7.148;2024-01-15T03:45:10;23.60;;;13.70;;
10277;SDS011;5184;51.376;7.148;2024-01-15T03:47:38;26.03;;;14.00;;
10277;SDS011;5184;51.376;7.148;2024-01-15T03:50:05;27.17;;;13.40;;
10277;SDS011;5184;51.376;7.148;2024-01-15T03:52:32;24.20;;;12.47;;
10277;SDS011;5184;51.376;7.148;2024-01-15T03:54:58;23.83;;;13.30;;
10277;SDS011;5184;51.376;7.148;2024-01-15T03:57:26;25.63;;;14.07;;
10277;SDS011;5184;51.376;7.148;2024-01-15T03:59:53;23.87;;;13.27;;
10277;SDS011;5184;51.376;7.148;2024-01-15T04:02:21;24.13;;;13.33;;
10277;SDS011;5184;51.376;7.148;2024-01-15T04:04:47;23.13;;;12.93;;
10277;SDS011;5184;51.376;7.148;2024-01-15T04:07:14;20.33;;;12.30;;
10277;SDS011;5184;51.376;7.148;2024-01-15T04:09:40;22.30;;;12.57;;
10277;SDS011;5184;51.376;7.148;2024-01-15T04:12:08;22.07;;;12.87;;
10277;SDS011;5184;51.376;7.148;2024-01-15T04:14:35;22.90;;;13.33;;
10277;SDS011;5184;51.376;7.148;2024-01-15T04:17:02;23.33;;;12.97;;
10277;SDS011;5184;51.376;7.148;2024-01-15T04:19:30;24.03;;;11.90;;
10277;SDS011;5184;51.376;7.148;2024-01-15T04:21:56;25.07;;;13.50;;
10277;SDS011;5184;51.376;7.148;2024-01-15T04:24:23;21.90;;;11.87;;
10277;SDS011;5184;51.376;7.148;2024-01-15T04:26:50;23.40;;;11.67;;
10277;SDS011;5184;51.376;7.148;2024-01-15T04:29:18;26.43;;;12.53;;
10277;SDS011;5184;51.376;7.148;2024-01-15T04:31:44;18.30;;;12.10;;
10277;SDS011;5184;51.376;7.148;2024-01-15T04:34:11;23.23;;;13.33;;
10277;SDS011;5184;51.376;7.148;2024-01-15T04:36:38;25.37;;;13.37;;
10277;SDS011;5184;51.376;7.148;2024-01-15T04:39:05;20.17;;;13.20;;
10277;SDS011;5184;51.376;7.148;2024-01-15T04:41:33;23.50;;;11.90;;
10277;SDS011;5184;51.376;7.148;2024-01-15T04:43:59;23.90;;;12.03;;
10277;SDS011;5184;51.376;7.148;2024-01-15T04:46:26;20.93;;;13.07;;
10277;SDS011;5184;51.376;7.148;2024-01-15T04:48:53;20.53;;;12.23;;
10277;SDS011;5184;51.376;7.148;2024-01-15T04:51:19;21.83;;;12.63;;
10277;SDS011;5184;51.376;7.148;2024-01-15T04:53:47;21.43;;;12.23;;
10277;SDS011;5184;51.376;7.148;2024-01-15T04:56:13;24.03;;;12.27;;
10277;SDS011;5184;51.376;7.148;2024-01-15T04:58:40;21.83;;;11.80;;
10277;SDS011;5184;51.376;7.148;2024-01-15T05:01:07;20.10;;;12.90;;
10277;SDS011;5184;51.376;7.148;2024-01-15T05:03:34;25.10;;;12.97;;
10277;SDS011;5184;51.376;7.148;2024-01-15T05:06:01;22.20;;;12.07;;
10277;SDS011;5184;51.376;7.148;2024-01-15T05:08:28;24.57;;;13.37;;
10277;SDS011;5184;51.376;7.148;2024-01-15T05:10:55;21.10;;;12.13;;
10277;SDS011;5184;51.376;7.148;2024-01-15T05:13:21;18.37;;;11.37;;
10277;SDS011;5184;51.376;7.148;2024-01-15T05:15:48;19.40;;;12.47;;
10277;SDS011;5184;51.376;7.148;2024-01-15T05:18:15;25.43;;;12.10;;
10277;SDS011;5184;51.376;7.148;2024-01-15T05:20:42;19.07;;;11.93;;
10277;SDS011;5184;51.376;7.148;2024-01-15T05:23:09;20.63;;;12.07;;
10277;SDS011;5184;51.376;7.148;2024-01-15T05:25:37;24.33;;;12.67;;
10277;SDS011;5184;51.376;7.148;2024-01-15T05:28:04;21.07;;;11.80;;
10277;SDS011;5184;51.376;7.148;2024-01-15T05:30:32;19.70;;;12.27;;
10277;SDS011;5184;51.376;7.148;2024-01-15T05:32:59;18.80;;;12.10;;
10277;SDS011;5184;51.376;7.148;2024-01-15T05:35:26;19.60;;;11.20;;
10277;SDS011;5184;51.376;7.148;2024-01-15T05:37:52;19.00;;;11.73;;
10277;SDS011;5184;51.376;7.148;2024-01-15T05:40:19;16.80;;;11.17;;
10277;SDS011;5184;51.376;7.148;2024-01-15T05:42:46;21.27;;;11.90;;
10277;SDS011;5184;51.376;7.148;2024-01-15T05:45:13;18.07;;;11.17;;
10277;SDS011;5184;51.376;7.148;2024-01-15T05:47:40;19.20;;;11.70;;
10277;SDS011;5184;51.376;7.148;2024-01-15T05:50:07;23.70;;;11.53;;
10277;SDS011;5184;51.376;7.148;2024-01-15T05:52:34;18.73;;;11.13;;
10277;SDS011;5184;51.376;7.148;2024-01-15T05:55:01;17.13;;;10.97;;
10277;SDS011;5184;51.376;7.148;2024-01-15T05:57:28;19.73;;;11.67;;
10277;SDS011;5184;51.376;7.148;2024-01-15T05:59:55;18.80;;;10.73;;
10277;SDS011;5184;51.376;7.148;2024-01-15T06:02:22;20.57;;;10.90;;
10277;SDS011;5184;51.376;7.148;2024-01-15T06:04:50;15.30;;;9.67;;
10277;SDS011;5184;51.376;7.148;2024-01-15T06:07:16;19.60;;;10.53;;
10277;SDS011;5184;51.376;7.148;2024-01-15T06:09:43;20.10;;;10.37;;
10277;SDS011;5184;51.376;7.148;2024-01-15T06:12:09;20.70;;;10.90;;
10277;SDS011;5184;51.376;7.148;2024-01-15T06:14:37;17.60;;;9.77;;
10277;SDS011;5184;51.376;7.148;2024-01-15T06:17:04;15.93;;;10.37;;
10277;SDS011;5184;51.376;7.148;2024-01-15T06:19:31;21.77;;;10.13;;
10277;SDS011;5184;51.376;7.148;2024-01-15T06:21:58;16.53;;;10.13;;
10277;SDS011;5184;51.376;7.148;2024-01-15T06:24:25;19.23;;;10.57;;
10277;SDS011;5184;51.376;7.148;2024-01-15T06:26:51;21.07;;;10.40;;
10277;SDS011;5184;51.376;7.148;2024-01-15T06:29:18;18.63;;;10.57;;
10277;SDS011;5184;51.376;7.148;2024-01-15T06:31:44;19.70;;;11.07;;
10277;SDS011;5184;51.376;7.148;2024-01-15T06:34:12;19.43;;;9.80;;
10277;SDS011;5184;51.376;7.148;2024-01-15T06:36:38;17.30;;;9.77;;
10277;SDS011;5184;51.376;7.148;2024-01-15T06:39:05;16.07;;;10.00;;
10277;SDS011;5184;51.376;7.148;2024-01-15T06:41:32;16.57;;;9.30;;
10277;SDS011;5184;51.376;7.148;2024-01-15T06:43:58;15.60;;;10.67;;
10277;SDS011;5184;51.376;7.148;2024-01-15T06:46:25;16.63;;;10.43;;
10277;SDS011;5184;51.376;7.148;2024-01-15T06:48:52;17.60;;;11.23;;
10277;SDS011;5184;51.376;7.148;2024-01-15T06:51:19;17.00;;;10.93;;
10277;SDS011;5184;51.376;7.148;2024-01-15T06:53:45;17.53;;;10.60;;
10277;SDS011;5184;51.376;7.148;2024-01-15T06:56:12;18.37;;;10.57;;
10277;SDS011;5184;51.376;7.148;2024-01-15T06:58:39;17.23;;;11.27;;
10277;SDS011;5184;51.376;7.148;2024-01-15T07:01:06;18.10;;;11.10;;
10277;SDS011;5184;51.376;7.148;2024-01-15T07:03:33;19.33;;;11.33;;
10277;SDS011;5184;51.376;7.148;2024-01-15T07:05:59;18.43;;;11.43;;
10277;SDS011;5184;51.376;7.148;2024-01-15T07:08:27;20.57;;;11.73;;
10277;SDS011;5184;51.376;7.148;2024-01-15T07:10:53;18.87;;;12.10;;
10277;SDS011;5184;51.376;7.148;2024-01-15T07:13:20;23.10;;;12.67;;
10277;SDS011;5184;51.376;7.148;2024-01-15T07:15:46;17.63;;;11.67;;
10277;SDS011;5184;51.376;7.148;2024-01-15T07:18:14;20.40;;;13.30;;
10277;SDS011;5184;51.376;7.148;2024-01-15T07:20:41;18.37;;;13.10;;
10277;SDS011;5184;51.376;7.148;2024-01-15T07:23:07;20.73;;;12.27;;
10277;SDS011;5184;51.376;7.148;2024-01-15T07:25:34;19.07;;;11.03;;
10277;SDS011;5184;51.376;7.148;2024-01-15T07:28:02;15.63;;;10.60;;
10277;SDS011;5184;51.376;7.148;2024-01-15T07:30:29;16.77;;;10.23;;
10277;SDS011;5184;51.376;7.148;2024-01-15T07:32:55;15.03;;;11.27;;
10277;SDS011;5184;51.376;7.148;2024-01-15T07:35:22;18.00;;;10.50;;
10277;SDS011;5184;51.376;7.148;2024-01-15T07:37:48;14.90;;;9.07;;
10277;SDS011;5184;51.376;7.148;2024-01-15T07:40:15;15.27;;;9.40;;
10277;SDS011;5184;51.376;7.148;2024-01-15T07:42:42;15.07;;;8.93;;
10277;SDS011;5184;51.376;7.148;2024-01-15T07:45:10;18.37;;;9.17;;
10277;SDS011;5184;51.376;7.148;2024-01-15T07:47:36;15.07;;;7.40;;
10277;SDS011;5184;51.376;7.148;2024-01-15T07:50:02;12.23;;;7.90;;
10277;SDS011;5184;51.376;7.148;2024-01-15T07:52:30;8.57;;;5.60;;
10277;SDS011;5184;51.376;7.148;2024-01-15T07:54:56;9.03;;;6.03;;
10277;SDS011;5184;51.376;7.148;2024-01-15T07:57:24;8.80;;;5.43;;
10277;SDS011;5184;51.376;7.148;2024-01-15T07:59:51;8.13;;;5.40;;
10277;SDS011;5184;51.376;7.148;2024-01-15T08:02:18;9.37;;;6.00;;
10277;SDS011;5184;51.376;7.148;2024-01-15T08:04:44;9.50;;;6.57;;
10277;SDS011;5184;51.376;7.148;2024-01-15T08:07:11;15.47;;;7.07;;
10277;SDS011;5184;51.376;7.148;2024-01-15T08:09:37;9.47;;;6.90;;
10277;SDS011;5184;51.376;7.148;2024-01-15T08:12:04;13.47;;;8.10;;
10277;SDS011;5184;51.376;7.148;2024-01-15T08:14:32;12.97;;;7.93;;
10277;SDS011;5184;51.376;7.148;2024-01-15T08:16:58;13.37;;;8.53;;
10277;SDS011;5184;51.376;7.148;2024-01-15T08:19:25;12.63;;;7.67;;
10277;SDS011;5184;51.376;7.148;2024-01-15T08:21:51;12.20;;;8.23;;
10277;SDS011;5184;51.376;7.148;2024-01-15T08:24:19;12.63;;;8.80;;
10277;SDS011;5184;51.376;7.148;2024-01-15T08:26:46;12.97;;;7.73;;
10277;SDS011;5184;51.376;7.148;2024-01-15T08:29:14;11.97;;;8.40;;
10277;SDS011;5184;51.376;7.148;2024-01-15T08:31:41;10.67;;;7.47;;
10277;SDS011;5184;51.376;7.148;2024-01-15T08:34:07;11.27;;;8.03;;
10277;SDS011;5184;51.376;7.148;2024-01-15T08:36:34;9.63;;;7.23;;
10277;SDS011;5184;51.376;7.148;2024-01-15T08:39:02;11.43;;;7.93;;
10277;SDS011;5184;51.376;7.148;2024-01-15T08:41:28;9.73;;;7.10;;
10277;SDS011;5184;51.376;7.148;2024-01-15T08:43:55;11.90;;;8.30;;
10277;SDS011;5184;51.376;7.148;2024-01-15T08:46:21;9.97;;;7.07;;
10277;SDS011;5184;51.376;7.148;2024-01-15T08:48:48;8.27;;;6.60;;
10277;SDS011;5184;51.376;7.148;2024-01-15T08:51:14;10.97;;;7.33;;
10277;SDS011;5184;51.376;7.148;2024-01-15T08:53:41;10.70;;;7.63;;
10277;SDS011;5184;51.376;7.148;2024-01-15T08:56:08;9.83;;;6.87;;
10277;SDS011;5184;51.376;7.148;2024-01-15T08:58:36;11.13;;;7.90;;
10277;SDS011;5184;51.376;7.148;2024-01-15T09:01:02;9.70;;;7.10;;
10277;SDS011;5184;51.376;7.148;2024-01-15T09:03:29;10.10;;;7.77;;
10277;SDS011;5184;51.376;7.148;2024-01-15T09:05:56;13.83;;;8.57;;
10277;SDS011;5184;51.376;7.148;2024-01-15T09:08:22;13.07;;;8.90;;
10277;SDS011;5184;51.376;7.148;2024-01-15T09:10:49;11.83;;;8.90;;
10277;SDS011;5184;51.376;7.148;2024-01-15T09:13:16;12.23;;;8.60;;
10277;SDS011;5184;51.376;7.148;2024-01-15T09:15:43;12.37;;;8.93;;
10277;SDS011;5184;51.376;7.148;2024-01-15T09:18:09;11.03;;;8.13;;
10277;SDS011;5184;51.376;7.148;2024-01-15T09:20:36;11.30;;;7.53;;
10277;SDS011;5184;51.376;7.148;2024-01-15T09:23:02;11.00;;;8.50;;
10277;SDS011;5184;51.376;7.148;2024-01-15T09:25:29;12.47;;;8.57;;
10277;SDS011;5184;51.376;7.148;2024-01-15T09:27:57;10.93;;;8.83;;
10277;SDS011;5184;51.376;7.148;2024-01-15T09:30:24;12.27;;;8.90;;
10277;SDS011;5184;51.376;7.148;2024-01-15T09:32:50;13.87;;;9.07;;
10277;SDS011;5184;51.376;7.148;2024-01-15T09:35:17;12.53;;;8.63;;
10277;SDS011;5184;51.376;7.148;2024-01-15T09:37:44;10.53;;;8.07;;
10277;SDS011;5184;51.376;7.148;2024-01-15T09:40:12;10.73;;;7.57;;
10277;SDS011;5184;51.376;7.148;2024-01-15T09:42:41;11.07;;;7.90;;
10277;SDS011;5184;51.376;7.148;2024-01-15T09:45:08;9.07;;;6.47;;
10277;SDS011;5184;51.376;7.148;2024-01-15T09:47:35;10.90;;;6.83;;
10277;SDS011;5184;51.376;7.148;2024-01-15T09:50:01;8.43;;;5.73;;
10277;SDS011;5184;51.376;7.148;2024-01-15T09:52:28;7.43;;;5.57;;
10277;SDS011;5184;51.376;7.148;2024-01-15T09:54:54;7.63;;;5.50;;
10277;SDS011;5184;51.376;7.148;2024-01-15T09:57:21;8.57;;;6.40;;
10277;SDS011;5184;51.376;7.148;2024-01-15T09:59:48;12.30;;;7.83;;
10277;SDS011;5184;51.376;7.148;2024-01-15T10:02:16;11.20;;;7.83;;
10277;SDS011;5184;51.376;7.148;2024-01-15T10:04:43;10.60;;;7.40;;
10277;SDS011;5184;51.376;7.148;2024-01-15T10:07:10;11.10;;;6.97;;
10277;SDS011;5184;51.376;7.148;2024-01-15T10:09:37;10.83;;;7.60;;
10277;SDS011;5184;51.376;7.148;2024-01-15T10:12:04;9.23;;;6.47;;
10277;SDS011;5184;51.376;7.148;2024-01-15T10:14:31;11.30;;;8.00;;
10277;SDS011;5184;51.376;7.148;2024-01-15T10:16:58;12.43;;;8.27;;
10277;SDS011;5184;51.376;7.148;2024-01-15T10:19:25;12.83;;;8.37;;
10277;SDS011;5184;51.376;7.148;2024-01-15T10:21:53;11.67;;;7.40;;
10277;SDS011;5184;51.376;7.148;2024-01-15T10:24:20;14.27;;;9.70;;
10277;SDS011;5184;51.376;7.148;2024-01-15T10:26:47;11.90;;;8.43;;
10277;SDS011;5184;51.376;7.148;2024-01-15T10:29:14;13.30;;;8.10;;
10277;SDS011;5184;51.376;7.148;2024-01-15T10:31:41;12.97;;;8.63;;
10277;SDS011;5184;51.376;7.148;2024-01-15T10:34:10;11.30;;;7.77;;
10277;SDS011;5184;51.376;7.148;2024-01-15T10:36:38;12.87;;;8.60;;
10277;SDS011;5184;51.376;7.148;2024-01-15T10:39:04;17.63;;;9.37;;
10277;SDS011;5184;51.376;7.148;2024-01-15T10:41:31;12.40;;;8.87;;
10277;SDS011;5184;51.376;7.148;2024-01-15T10:43:57;12.33;;;8.67;;
10277;SDS011;5184;51.376;7.148;2024-01-15T10:46:24;12.77;;;8.80;;
10277;SDS011;5184;51.376;7.148;2024-01-15T10:48:51;14.37;;;9.47;;
10277;SDS011;5184;51.376;7.148;2024-01-15T10:51:17;11.43;;;8.00;;
10277;SDS011;5184;51.376;7.148;2024-01-15T10:53:45;14.43;;;9.37;;
10277;SDS011;5184;51.376;7.148;2024-01-15T10:56:12;13.00;;;8.47;;
10277;SDS011;5184;51.376;7.148;2024-01-15T10:58:39;15.60;;;9.50;;
10277;SDS011;5184;51.376;7.148;2024-01-15T11:01:05;12.20;;;9.27;;
10277;SDS011;5184;51.376;7.148;2024-01-15T11:03:32;10.83;;;8.33;;
10277;SDS011;5184;51.376;7.148;2024-01-15T11:05:59;12.83;;;9.37;;
10277;SDS011;5184;51.376;7.148;2024-01-15T11:08:26;13.20;;;9.00;;
10277;SDS011;5184;51.376;7.148;2024-01-15T11:10:53;13.60;;;9.40;;
10277;SDS011;5184;51.376;7.148;2024-01-15T11:13:20;11.10;;;8.33;;
10277;SDS011;5184;51.376;7.148;2024-01-15T11:18:21;9.90;;;7.53;;
10277;SDS011;5184;51.376;7.148;2024-01-15T11:24:02;11.33;;;7.90;;
10277;SDS011;5184;51.376;7.148;2024-01-15T11:28:51;9.43;;;6.77;;
10277;SDS011;5184;51.376;7.148;2024-01-15T11:31:18;9.87;;;7.53;;
10277;SDS011;5184;51.376;7.148;2024-01-15T11:33:49;9.10;;;6.77;;
10277;SDS011;5184;51.376;7.148;2024-01-15T11:36:15;10.50;;;7.13;;
10277;SDS011;5184;51.376;7.148;2024-01-15T11:38:43;11.90;;;6.33;;
10277;SDS011;5184;51.376;7.148;2024-01-15T11:41:14;7.90;;;6.20;;
10277;SDS011;5184;51.376;7.148;2024-01-15T11:43:40;9.70;;;7.27;;
10277;SDS011;5184;51.376;7.148;2024-01-15T11:46:10;10.43;;;7.33;;
10277;SDS011;5184;51.376;7.148;2024-01-15T11:48:42;11.63;;;7.20;;
10277;SDS011;5184;51.376;7.148;2024-01-15T11:51:05;10.03;;;7.43;;
10277;SDS011;5184;51.376;7.148;2024-01-15T11:53:33;9.53;;;7.87;;
10277;SDS011;5184;51.376;7.148;2024-01-15T11:56:01;9.90;;;7.03;;
10277;SDS011;5184;51.376;7.148;2024-01-15T11:58:27;13.30;;;7.97;;
10277;SDS011;5184;51.376;7.148;2024-01-15T12:00:54;11.00;;;7.73;;
10277;SDS011;5184;51.376;7.148;2024-01-15T12:03:22;10.50;;;7.80;;
10277;SDS011;5184;51.376;7.148;2024-01-15T12:05:49;12.97;;;8.10;;
10277;SDS011;5184;51.376;7.148;2024-01-15T12:08:20;11.50;;;8.70;;
10277;SDS011;5184;51.376;7.148;2024-01-15T12:10:42;14.03;;;8.50;;
10277;SDS011;5184;51.376;7.148;2024-01-15T12:13:11;12.63;;;8.67;;
10277;SDS011;5184;51.376;7.148;2024-01-15T12:15:37;13.97;;;8.50;;
10277;SDS011;5184;51.376;7.148;2024-01-15T12:18:04;10.83;;;7.43;;
10277;SDS011;5184;51.376;7.148;2024-01-15T12:20:31;11.57;;;8.00;;
10277;SDS011;5184;51.376;7.148;2024-01-15T12:22:57;8.93;;;6.83;;
10277;SDS011;5184;51.376;7.148;2024-01-15T12:25:24;8.80;;;7.37;;
10277;SDS011;5184;51.376;7.148;2024-01-15T12:27:51;11.87;;;7.27;;
10277;SDS011;5184;51.376;7.148;2024-01-15T12:30:18;10.50;;;8.10;;
10277;SDS011;5184;51.376;7.148;2024-01-15T12:32:44;10.63;;;7.57;;
10277;SDS011;5184;51.376;7.148;2024-01-15T12:35:12;11.67;;;7.57;;
10277;SDS011;5184;51.376;7.148;2024-01-15T12:37:39;9.63;;;6.40;;
10277;SDS011;5184;51.376;7.148;2024-01-15T12:40:07;9.43;;;6.93;;
10277;SDS011;5184;51.376;7.148;2024-01-15T12:42:33;8.53;;;6.20;;
10277;SDS011;5184;51.376;7.148;2024-01-15T12:45:00;7.00;;;5.57;;
10277;SDS011;5184;51.376;7.148;2024-01-15T12:47:27;10.53;;;5.97;;
10277;SDS011;5184;51.376;7.148;2024-01-15T12:49:54;10.37;;;5.10;;
10277;SDS011;5184;51.376;7.148;2024-01-15T12:52:20;6.03;;;4.97;;
10277;SDS011;5184;51.376;7.148;2024-01-15T12:54:48;10.13;;;5.27;;
10277;SDS011;5184;51.376;7.148;2024-01-15T12:57:14;11.80;;;4.77;;
10277;SDS011;5184;51.376;7.148;2024-01-15T12:59:40;8.00;;;5.33;;
10277;SDS011;5184;51.376;7.148;2024-01-15T13:02:07;8.97;;;5.50;;
10277;SDS011;5184;51.376;7.148;2024-01-15T13:04:34;7.30;;;5.00;;
10277;SDS011;5184;51.376;7.148;2024-01-15T13:07:00;6.27;;;4.50;;
10277;SDS011;5184;51.376;7.148;2024-01-15T13:09:27;8.47;;;5.70;;
10277;SDS011;5184;51.376;7.148;2024-01-15T13:11:53;11.83;;;5.70;;
10277;SDS011;5184;51.376;7.148;2024-01-15T13:14:20;7.10;;;5.20;;
10277;SDS011;5184;51.376;7.148;2024-01-15T13:16:47;6.97;;;5.27;;
10277;SDS011;5184;51.376;7.148;2024-01-15T13:19:13;9.20;;;4.53;;
10277;SDS011;5184;51.376;7.148;2024-01-15T13:21:40;7.53;;;5.17;;
10277;SDS011;5184;51.376;7.148;2024-01-15T13:24:07;8.20;;;5.03;;
10277;SDS011;5184;51.376;7.148;2024-01-15T13:26:35;9.47;;;5.13;;
10277;SDS011;5184;51.376;7.148;2024-01-15T13:29:03;8.60;;;5.00;;
10277;SDS011;5184;51.376;7.148;2024-01-15T13:31:31;9.53;;;5.30;;
10277;SDS011;5184;51.376;7.148;2024-01-15T13:33:58;8.67;;;5.30;;
10277;SDS011;5184;51.376;7.148;2024-01-15T13:36:25;10.77;;;5.10;;
10277;SDS011;5184;51.376;7.148;2024-01-15T13:38:53;7.70;;;4.23;;
10277;SDS011;5184;51.376;7.148;2024-01-15T13:41:20;6.73;;;4.20;;
10277;SDS011;5184;51.376;7.148;2024-01-15T13:43:48;5.70;;;4.17;;
10277;SDS011;5184;51.376;7.148;2024-01-15T13:46:15;5.53;;;4.17;;
10277;SDS011;5184;51.376;7.148;2024-01-15T13:48:41;6.70;;;4.07;;
10277;SDS011;5184;51.376;7.148;2024-01-15T13:51:08;8.00;;;4.07;;
10277;SDS011;5184;51.376;7.148;2024-01-15T13:53:37;8.23;;;4.60;;
10277;SDS011;5184;51.376;7.148;2024-01-15T13:56:03;6.03;;;4.90;;
10277;SDS011;5184;51.376;7.148;2024-01-15T13:58:31;9.47;;;5.70;;
10277;SDS011;5184;51.376;7.148;2024-01-15T14:00:57;12.37;;;7.03;;
10277;SDS011;5184;51.376;7.148;2024-01-15T14:03:24;8.17;;;6.93;;
10277;SDS011;5184;51.376;7.148;2024-01-15T14:05:52;9.23;;;7.70;;
10277;SDS011;5184;51.376;7.148;2024-01-15T14:08:19;9.20;;;6.57;;
10277;SDS011;5184;51.376;7.148;2024-01-15T14:10:46;8.90;;;6.60;;
10277;SDS011;5184;51.376;7.148;2024-01-15T14:13:13;8.10;;;5.77;;
10277;SDS011;5184;51.376;7.148;2024-01-15T14:15:40;8.73;;;6.07;;
10277;SDS011;5184;51.376;7.148;2024-01-15T14:20:37;9.93;;;6.73;;
10277;SDS011;5184;51.376;7.148;2024-01-15T14:23:04;10.00;;;6.33;;
10277;SDS011;5184;51.376;7.148;2024-01-15T14:25:31;9.93;;;5.27;;
10277;SDS011;5184;51.376;7.148;2024-01-15T14:27:59;5.43;;;4.90;;
10277;SDS011;5184;51.376;7.148;2024-01-15T14:30:25;7.30;;;4.60;;
10277;SDS011;5184;51.376;7.148;2024-01-15T14:32:52;6.30;;;4.70;;
10277;SDS011;5184;51.376;7.148;2024-01-15T14:35:18;5.30;;;4.23;;
10277;SDS011;5184;51.376;7.148;2024-01-15T14:37:45;6.10;;;3.80;;
10277;SDS011;5184;51.376;7.148;2024-01-15T14:40:13;8.33;;;3.80;;
10277;SDS011;5184;51.376;7.148;2024-01-15T14:42:40;8.93;;;5.73;;
10277;SDS011;5184;51.376;7.148;2024-01-15T14:45:07;6.43;;;3.30;;
10277;SDS011;5184;51.376;7.148;2024-01-15T14:47:35;5.17;;;3.57;;
10277;SDS011;5184;51.376;7.148;2024-01-15T14:50:01;3.00;;;2.80;;
10277;SDS011;5184;51.376;7.148;2024-01-15T14:52:29;6.67;;;3.17;;